Latest Weather Observations for Eildon Fire Tower

IDV60801

Issued at 4:02 pm EST Tuesday 21 April 2015 (issued every 30 minutes, with the page automatically refreshed every 10 minutes)

About weather observations | Map of weather stations | Latest weather observations for VIC | Other Formats
Station Details ID: 088164 Name: EILDON FIRE TOWER Lat: -37.21 Lon: 145.84 Height: 637.0 m
Data from the previous 72 hours. | See also: Recent months at Eildon Fire Tower
Date/Time
EST
Temp
°C
App
Temp
°C
Dew
Point
Rel
Hum
%
Delta-T
°C
Wind Press
QNH
hPa
Press
MSL
hPa
Rain
since 9 am
mm
Dir
 
Spd
km/h
Gust
km/h
Spd
kts
Gust
kts
21/04:00pm 13.9 8.3 0.2 39 6.0 SE 19 28 10 15 - - 0.0
21/03:30pm 14.5 8.1 0.7 39 6.1 SE 24 39 13 21 - - 0.0
21/03:00pm 14.7 9.0 -0.6 35 6.6 SE 19 33 10 18 - - 0.0
21/02:30pm 15.5 10.0 0.5 36 6.7 SE 19 32 10 17 - - 0.0
21/02:00pm 14.4 8.7 0.6 39 6.1 SSE 20 28 11 15 - - 0.0
21/01:30pm 14.8 9.1 0.6 38 6.3 SE 20 32 11 17 - - 0.0
21/01:00pm 14.8 9.5 1.7 41 5.9 SE 19 33 10 18 - - 0.0
21/12:30pm 14.3 8.8 1.6 42 5.7 SE 20 30 11 16 - - 0.0
21/12:00pm 13.9 8.9 1.5 43 5.6 SE 17 28 9 15 - - 0.0
21/11:30am 13.2 7.6 1.5 45 5.2 SE 20 32 11 17 - - 0.0
21/11:00am 13.4 8.0 2.6 48 4.9 SE 20 33 11 18 - - 0.0
21/10:30am 12.6 6.9 3.0 52 4.4 SE 22 39 12 21 - - 0.0
21/10:00am 11.3 4.4 2.6 55 3.9 SE 28 46 15 25 - - 0.0
21/09:30am 10.7 4.9 2.5 57 3.7 SE 22 33 12 18 - - 0.0
21/09:00am 10.7 7.8 2.8 58 3.5 SE 7 11 4 6 - - 0.0
21/08:30am 9.5 7.0 1.4 57 3.5 S 4 9 2 5 - - 0.0
21/08:00am 9.2 6.1 1.1 57 3.4 ESE 7 17 4 9 - - 0.0
21/07:30am 7.8 2.2 1.0 62 2.8 SE 20 39 11 21 - - 0.0
21/07:00am 6.9 1.3 1.4 68 2.3 SE 20 41 11 22 - - 0.0
21/06:30am 6.4 2.4 0.5 66 2.4 SSE 11 30 6 16 - - 0.0
21/06:00am 6.5 1.1 1.0 68 2.3 S 19 30 10 16 - - 0.0
21/05:30am 6.7 0.0 1.4 69 2.2 SSE 26 41 14 22 - - 0.0
21/05:00am 6.3 -0.4 1.4 71 2.0 SE 26 41 14 22 - - 0.0
21/04:30am 6.5 0.1 1.2 69 2.2 SE 24 41 13 22 - - 0.0
21/04:00am 6.5 1.1 1.0 68 2.3 SSE 19 28 10 15 - - 0.0
21/03:30am 6.5 1.1 1.0 68 2.3 SSE 19 32 10 17 - - 0.0
21/03:00am 6.5 1.4 1.0 68 2.3 SSE 17 33 9 18 - - 0.0
21/02:30am 6.8 1.2 0.9 66 2.4 SSE 20 35 11 19 - - 0.0
21/02:00am 6.9 0.9 1.0 66 2.4 SE 22 43 12 23 - - 0.0
21/01:30am 6.7 0.7 1.0 67 2.4 SE 22 44 12 24 - - 0.0
21/01:00am 6.8 0.7 0.7 65 2.5 SE 22 37 12 20 - - 0.0
21/12:48am 6.9 0.5 0.8 65 2.5 SSE 24 46 13 25 - - 0.0
21/12:30am 6.5 3.3 0.6 66 2.4 SSE 7 22 4 12 - - 0.0
21/12:00am 6.4 2.4 0.3 65 2.5 S 11 20 6 11 - - 0.0
 
Date/Time
EST
Temp
°C
App
Temp
°C
Dew
Point
Rel
Hum
%
Delta-T
°C
Wind Press
QNH
hPa
Press
MSL
hPa
Rain
since 9 am
mm
Dir
 
Spd
km/h
Gust
km/h
Spd
kts
Gust
kts
20/11:30pm 7.2 0.7 0.6 63 2.7 SSE 24 59 13 32 - - 0.0
20/11:00pm 7.2 1.5 0.6 63 2.7 SSE 20 39 11 21 - - 0.0
20/10:30pm 6.9 2.5 0.6 64 2.6 SSW 13 41 7 22 - - 0.0
20/10:00pm 7.6 1.1 0.6 61 2.9 SSE 24 46 13 25 - - 0.0
20/09:58pm 7.6 1.1 0.6 61 2.9 S 24 46 13 25 - - 0.0
20/09:30pm 7.6 2.5 0.8 62 2.8 S 17 37 9 20 - - 0.0
20/09:00pm 7.9 2.5 1.1 62 2.9 SSE 19 35 10 19 - - 0.0
20/08:30pm 8.0 3.0 1.4 63 2.8 SE 17 26 9 14 - - 0.0
20/08:00pm 7.8 3.9 1.2 63 2.8 SSE 11 20 6 11 - - 0.0
20/07:30pm 8.2 3.2 1.4 62 2.9 SSE 17 35 9 19 - - 0.0
20/07:00pm 8.6 3.0 1.1 59 3.2 SSE 20 35 11 19 - - 0.0
20/06:30pm 9.1 2.3 0.8 56 3.5 SSE 26 39 14 21 - - 0.0
20/06:14pm 9.2 2.0 0.6 55 3.6 SSE 28 48 15 26 - - 0.0
20/06:00pm 9.4 3.3 0.6 54 3.7 SSE 22 41 12 22 - - 0.0
20/05:33pm 9.8 2.6 0.4 52 4.0 SSE 28 50 15 27 - - 0.0
20/05:30pm 9.7 4.0 0.3 52 3.9 SSE 20 46 11 25 - - 0.0
20/05:00pm 10.4 3.1 0.2 49 4.3 SSE 28 43 15 23 - - 0.0
20/04:45pm 10.4 3.2 0.4 50 4.2 SE 28 52 15 28 - - 0.0
20/04:30pm 11.2 5.1 0.3 47 4.6 SSE 22 46 12 25 - - 0.0
20/04:16pm 11.3 4.1 0.4 47 4.7 SE 28 41 15 22 - - 0.0
20/04:00pm 12.4 7.7 0.8 45 5.1 SSE 15 30 8 16 - - 0.0
20/03:30pm 11.4 4.8 -0.1 45 4.9 SSE 24 37 13 20 - - 0.0
20/03:00pm 11.7 5.0 -0.8 42 5.2 SE 24 39 13 21 - - 0.0
20/02:30pm 11.7 5.6 0.2 45 4.9 SSE 22 37 12 20 - - 0.0
20/02:00pm 10.5 4.9 1.1 52 4.1 SSE 20 37 11 20 - - 0.0
20/01:30pm 11.6 7.4 1.8 51 4.3 SE 13 28 7 15 - - 0.0
20/01:00pm 10.9 5.9 1.4 52 4.1 SE 17 28 9 15 - - 0.0
20/12:30pm 10.3 2.7 0.6 51 4.1 SSE 30 50 16 27 - - 0.0
20/12:00pm 10.8 3.7 1.4 52 4.1 SE 28 48 15 26 - - 0.0
20/11:59am 10.4 3.1 0.2 49 4.3 SE 28 48 15 26 - - 0.0
20/11:30am 11.4 6.7 0.8 48 4.6 SE 15 33 8 18 - - 0.0
20/11:00am 9.8 2.1 0.2 51 4.0 SE 30 44 16 24 - - 0.0
20/10:45am 10.0 2.8 0.6 52 4.0 SE 28 48 15 26 - - 0.0
20/10:30am 9.9 3.5 0.8 53 3.9 SE 24 48 13 26 - - 0.0
20/10:00am 10.3 5.3 1.4 54 3.9 SE 17 28 9 15 - - 0.0
20/09:30am 9.4 4.7 1.1 56 3.5 SE 15 28 8 15 - - 0.0
20/09:00am 8.7 3.6 0.7 57 3.4 SE 17 37 9 20 - - 0.0
20/08:30am 8.3 1.5 1.0 60 3.1 SE 26 44 14 24 - - 0.0
20/08:07am 7.8 0.6 0.5 60 3.0 SE 28 52 15 28 - - 0.0
20/08:00am 7.7 2.2 0.9 62 2.8 SSE 19 43 10 23 - - 0.0
20/07:30am 6.4 1.6 0.1 64 2.5 SSW 15 32 8 17 - - 0.0
20/07:00am 5.9 0.7 -0.2 65 2.4 S 17 33 9 18 - - 0.0
20/06:30am 6.0 1.2 0.1 66 2.4 S 15 35 8 19 - - 0.0
20/06:00am 6.2 -0.4 -0.1 64 2.5 SSE 24 41 13 22 - - 0.0
20/05:30am 5.7 0.8 -0.4 65 2.4 S 15 24 8 13 - - 0.0
20/05:00am 5.6 0.4 0.0 67 2.2 S 17 32 9 17 - - 0.0
20/04:30am 4.6 -0.7 -0.4 70 2.0 SW 17 26 9 14 - - 0.0
20/04:00am 5.9 0.2 -0.6 63 2.6 S 19 35 10 19 - - 0.0
20/03:30am 4.2 -0.3 0.0 74 1.7 SSW 13 22 7 12 - - 0.0
20/03:00am 5.2 -0.4 -0.2 68 2.1 S 19 30 10 16 - - 0.0
20/02:30am 5.5 0.2 -0.5 65 2.4 S 17 35 9 19 - - 0.0
20/02:00am 5.8 -0.1 -0.5 64 2.5 SSE 20 35 11 19 - - 0.0
20/01:30am 5.5 -0.3 0.1 68 2.2 S 20 30 11 16 - - 0.0
20/01:00am 5.6 0.0 -0.2 66 2.3 SSE 19 30 10 16 - - 0.0
20/12:30am 5.9 -1.1 -0.4 64 2.5 S 26 39 14 21 - - 0.0
20/12:29am 5.8 -1.2 -0.5 64 2.5 S 26 39 14 21 - - 0.0
20/12:00am 5.2 1.4 -0.6 66 2.3 SSE 9 19 5 10 - - 0.0
 
Date/Time
EST
Temp
°C
App
Temp
°C
Dew
Point
Rel
Hum
%
Delta-T
°C
Wind Press
QNH
hPa
Press
MSL
hPa
Rain
since 9 am
mm
Dir
 
Spd
km/h
Gust
km/h
Spd
kts
Gust
kts
19/11:30pm 5.6 -0.6 -0.4 65 2.4 S 22 35 12 19 - - 0.0
19/11:00pm 5.4 0.2 0.0 68 2.2 S 17 24 9 13 - - 0.0
19/10:30pm 5.2 -0.5 -0.4 67 2.2 SSE 19 28 10 15 - - 0.0
19/10:00pm 4.9 0.1 0.3 72 1.8 SSE 15 26 8 14 - - 0.0
19/09:30pm 5.5 0.3 -0.1 67 2.2 SSE 17 28 9 15 - - 0.0
19/09:00pm 5.2 0.0 0.2 70 2.0 S 17 22 9 12 - - 0.0
19/08:30pm 5.4 0.2 0.0 68 2.2 SSE 17 28 9 15 - - 0.0
19/08:00pm 5.6 -0.6 -0.2 66 2.3 S 22 33 12 18 - - 0.0
19/07:46pm 5.8 -1.5 -0.3 65 2.4 SSW 28 48 15 26 - - 0.0
19/07:30pm 5.8 -1.1 0.2 67 2.3 S 26 35 14 19 - - 0.0
19/07:00pm 5.6 -0.5 0.6 70 2.0 S 22 30 12 16 - - 0.0
19/06:30pm 5.9 -0.9 0.7 69 2.1 S 26 39 14 21 - - 0.0
19/06:00pm 6.4 -0.8 0.9 68 2.3 SSW 28 48 15 26 - - 0.0
19/05:54pm 6.3 -0.9 0.6 67 2.3 SSW 28 48 15 26 - - 0.0
19/05:30pm 6.7 1.2 1.8 71 2.1 SSW 20 33 11 18 - - 0.0
19/05:00pm 6.7 1.2 2.0 72 2.0 SW 20 30 11 16 - - 0.0
19/04:30pm 6.5 -1.5 1.8 72 2.0 S 33 57 18 31 - - 0.0
19/04:22pm 7.0 -0.3 2.3 72 2.0 SW 30 57 16 31 - - 0.0
19/04:00pm 9.2 1.9 2.5 63 2.9 SW 30 41 16 22 - - 0.0
19/03:30pm 9.2 1.8 -0.7 50 4.0 S 28 44 15 24 - - 0.0
19/03:02pm 9.7 2.5 0.6 53 3.8 SSW 28 46 15 25 - - 0.0
19/03:00pm 9.6 2.8 0.5 53 3.8 SSW 26 44 14 24 - - 0.0
19/02:30pm 9.7 4.2 0.9 54 3.7 SSE 19 30 10 16 - - 0.0
19/02:00pm 9.6 4.3 1.8 58 3.4 S 19 32 10 17 - - 0.0
19/01:30pm 9.6 5.0 3.6 66 2.7 SSE 17 32 9 17 - - 0.0
19/01:00pm 8.2 0.9 2.2 66 2.6 SSW 30 44 16 24 - - 0.0
19/12:30pm 8.4 2.1 3.8 73 2.1 SW 26 46 14 25 - - 0.0
19/12:01pm 6.2 -3.0 3.5 83 1.2 SW 41 61 22 33 - - 0.0
19/12:00pm 6.3 -2.9 3.3 81 1.3 SW 41 61 22 33 - - 0.0
19/11:54am 7.5 0.8 3.4 75 1.8 SW 28 52 15 28 - - 0.0
19/11:30am 7.7 2.8 4.1 78 1.6 SW 19 32 10 17 - - 0.0
19/11:00am 8.1 2.7 4.3 77 1.7 SW 22 32 12 17 - - 0.0
19/10:30am 7.5 2.2 4.8 83 1.2 WSW 22 35 12 19 - - 0.0
19/10:00am 7.6 2.4 5.7 88 0.9 WSW 22 33 12 18 - - 0.0
19/09:30am 7.2 1.9 5.0 86 1.0 WSW 22 28 12 15 - - 0.0
19/09:00am 6.4 1.0 4.4 87 0.9 WSW 22 32 12 17 - - 0.8
19/08:30am 6.2 1.4 4.5 89 0.8 WSW 19 28 10 15 - - 0.8
19/08:00am 5.6 0.5 4.2 91 0.6 WSW 20 26 11 14 - - 0.8
19/07:30am 5.2 -0.4 3.7 90 0.7 WSW 22 37 12 20 - - 0.8
19/07:00am 5.3 -1.0 3.5 88 0.8 WSW 26 39 14 21 - - 0.8
19/06:30am 5.8 -1.8 3.8 87 0.9 SW 33 44 18 24 - - 0.8
19/06:00am 5.7 -0.6 3.9 88 0.8 WSW 26 37 14 20 - - 0.8
19/05:30am 6.3 -0.7 4.1 86 1.0 WSW 30 52 16 28 - - 0.8
19/05:28am 6.3 -0.3 4.0 85 1.0 SW 28 52 15 28 - - 0.8
19/05:00am 6.3 -0.2 4.5 88 0.8 WSW 28 35 15 19 - - 0.8
19/04:30am 6.5 -0.3 5.0 90 0.7 WSW 30 41 16 22 - - 0.8
19/04:00am 6.4 0.0 5.0 91 0.6 WSW 28 44 15 24 - - 0.8
19/03:30am 6.6 0.7 5.7 94 0.4 WSW 26 39 14 21 - - 0.8
19/03:00am 6.9 1.0 5.7 92 0.6 WSW 26 39 14 21 - - 0.8
19/02:30am 6.9 0.9 5.4 90 0.7 WSW 26 41 14 22 - - 0.8
19/02:00am 6.8 0.1 5.6 92 0.6 WSW 30 39 16 21 - - 0.8
19/01:30am 6.8 0.1 5.7 93 0.5 WSW 30 43 16 23 - - 0.6
19/01:00am 6.8 -0.2 5.9 94 0.4 WSW 32 41 17 22 - - 0.6
19/12:30am 7.0 0.1 6.6 97 0.2 WSW 32 44 17 24 - - 0.4
19/12:00am 7.4 0.6 7.0 97 0.2 WSW 32 41 17 22 - - 0.4
 
Date/Time
EST
Temp
°C
App
Temp
°C
Dew
Point
Rel
Hum
%
Delta-T
°C
Wind Press
QNH
hPa
Press
MSL
hPa
Rain
since 9 am
mm
Dir
 
Spd
km/h
Gust
km/h
Spd
kts
Gust
kts
18/11:30pm 7.7 1.0 7.3 97 0.2 WSW 32 41 17 22 - - 0.4
18/11:00pm 8.1 0.2 7.7 97 0.2 WSW 39 46 21 25 - - 0.4
18/10:30pm 9.2 2.8 8.4 95 0.4 WSW 32 44 17 24 - - 0.2
18/10:00pm 9.8 3.9 9.2 96 0.3 WSW 30 43 16 23 - - 0.2
18/09:47pm 10.1 4.6 9.2 94 0.5 WSW 28 48 15 26 - - 0.2
18/09:30pm 11.3 7.4 8.7 84 1.3 W 19 26 10 14 - - 0.0
18/09:00pm 11.8 8.8 7.9 77 2.0 W 13 17 7 9 - - 0.0
18/08:30pm 12.1 10.2 7.6 74 2.3 NNW 7 17 4 9 - - 0.0
18/08:00pm 12.0 8.7 8.1 77 2.0 NW 15 26 8 14 - - 0.0
18/07:30pm 11.9 8.5 9.1 83 1.5 NW 17 28 9 15 - - 0.0
18/07:00pm 12.1 9.4 10.2 88 1.0 NNW 15 24 8 13 - - 0.0
18/06:30pm 12.5 10.1 10.2 86 1.2 NW 13 22 7 12 - - 0.0
18/06:00pm 12.9 11.0 9.2 78 1.9 NW 9 15 5 8 - - 0.0
18/05:30pm 13.8 11.6 9.3 74 2.4 NNW 11 17 6 9 - - 0.0
18/05:00pm 14.0 12.7 10.0 77 2.1 NW 7 13 4 7 - - 0.0
18/04:30pm 14.3 13.0 9.9 75 2.4 WNW 7 13 4 7 - - 0.0

Other Formats:

Comma delimited format used in spreadsheet applications
http://www.bom.gov.au/fwo/IDV60801/IDV60801.94881.axf

JavaScript Object Notation format (JSON) in row-major order
http://www.bom.gov.au/fwo/IDV60801/IDV60801.94881.json